Change Of Latitude — WDF6082 — position and weather

sailwx.info

Track history (hours):
 
Tides and Currents Weather Stations Pressure Air Temp Water Temp Dewpoint Dewpoint Depression Visibility Wind Speed Wind Dir Waves Ship Positions

Change Of Latitude

More information available from US FCC via Universal Licensing System and Coast Guard Vessel Documentation Center.

Last reported at 2014-Jul-31 23:19 UTC. Time now 2014-Aug-02 00:29 UTC.
Position N 48°26' W 122°56'.

Length 15 m.

Type: Pleasure craft. MMSI: 367470440.

Date/timePositionNaut miles runAvg speedWind from/ knotsBaromVisibWave heightAir tempDewpointWater temp
2014-Jul-31 23:19N 48°26' W 122°56'6 7.4
2014-Jul-31 22:33N 48°32' W 122°57'  
2014-Jul-29 04:09N 48°32' W 123°01'0 0.0
2014-Jul-29 03:33N 48°32' W 123°01'4 4.1
2014-Jul-29 02:34N 48°29' W 122°58'37 9.0
2014-Jul-28 22:27N 47°57' W 122°31'910.5
2014-Jul-28 21:33N 47°48' W 122°26'411.1
2014-Jul-28 21:14N 47°44' W 122°25'3 0.1
2014-Jul-27 17:32N 47°41' W 122°24'0 0.0
2014-Jul-27 17:32N 47°41' W 122°24'0 0.0
2014-Jul-27 00:25N 47°41' W 122°24'0 0.0
2014-Jul-26 22:37N 47°41' W 122°24'0 0.0
2014-Jul-26 22:31N 47°41' W 122°24'0 0.0
2014-Jul-26 22:31N 47°41' W 122°24'6 5.8
2014-Jul-26 21:33N 47°46' W 122°25'9 9.0
2014-Jul-26 20:33N 47°55' W 122°21'37 7.3
2014-Jul-26 15:29N 48°29' W 122°43'  
Track history (hours):
 
Tides and Currents Weather Stations Pressure Air Temp Water Temp Dewpoint Dewpoint Depression Visibility Wind Speed Wind Dir Waves Ship Positions

Change Of Latitude

More information available from US FCC via Universal Licensing System and Coast Guard Vessel Documentation Center.

Last reported at 2014-Jul-31 23:19 UTC. Time now 2014-Aug-02 00:29 UTC.
Position N 48°26' W 122°56'.

Length 15 m.

Type: Pleasure craft. MMSI: 367470440.

Date/timePositionNaut miles runAvg speedWind from/ knotsBaromVisibWave heightAir tempDewpointWater temp
2014-Jul-31 23:19N 48°26' W 122°56'6 7.4
2014-Jul-31 22:33N 48°32' W 122°57'  
2014-Jul-29 04:09N 48°32' W 123°01'0 0.0
2014-Jul-29 03:33N 48°32' W 123°01'4 4.1
2014-Jul-29 02:34N 48°29' W 122°58'37 9.0
2014-Jul-28 22:27N 47°57' W 122°31'910.5
2014-Jul-28 21:33N 47°48' W 122°26'411.1
2014-Jul-28 21:14N 47°44' W 122°25'3 0.1
2014-Jul-27 17:32N 47°41' W 122°24'0 0.0
2014-Jul-27 17:32N 47°41' W 122°24'0 0.0
2014-Jul-27 00:25N 47°41' W 122°24'0 0.0
2014-Jul-26 22:37N 47°41' W 122°24'0 0.0
2014-Jul-26 22:31N 47°41' W 122°24'0 0.0
2014-Jul-26 22:31N 47°41' W 122°24'6 5.8
2014-Jul-26 21:33N 47°46' W 122°25'9 9.0
2014-Jul-26 20:33N 47°55' W 122°21'37 7.3
2014-Jul-26 15:29N 48°29' W 122°43'  

Dump ship's entire track history